sensor_id;sensor_type;location;lat;lon;timestamp;P1;durP1;ratioP1;P2;durP2;ratioP2
63664;SDS011;49820;33.966;73.390;2024-02-21T03:17:17;7.30;;;3.53;;
63664;SDS011;49820;33.966;73.390;2024-02-21T03:22:41;5.95;;;3.30;;
63664;SDS011;49820;33.966;73.390;2024-02-21T03:25:11;5.47;;;3.30;;
63664;SDS011;49820;33.966;73.390;2024-02-21T03:27:43;7.03;;;3.80;;
63664;SDS011;49820;33.966;73.390;2024-02-21T03:30:12;6.00;;;3.47;;
63664;SDS011;49820;33.966;73.390;2024-02-21T03:32:42;5.97;;;3.80;;
63664;SDS011;49820;33.966;73.390;2024-02-21T03:35:12;4.95;;;3.28;;
63664;SDS011;49820;33.966;73.390;2024-02-21T03:37:42;6.47;;;3.80;;
63664;SDS011;49820;33.966;73.390;2024-02-21T03:40:13;6.70;;;3.80;;
63664;SDS011;49820;33.966;73.390;2024-02-21T03:42:43;7.50;;;3.58;;
63664;SDS011;49820;33.966;73.390;2024-02-21T03:45:13;6.30;;;3.60;;
63664;SDS011;49820;33.966;73.390;2024-02-21T03:47:42;8.15;;;4.05;;
63664;SDS011;49820;33.966;73.390;2024-02-21T03:50:12;6.47;;;3.88;;
63664;SDS011;49820;33.966;73.390;2024-02-21T03:52:42;7.93;;;3.90;;
63664;SDS011;49820;33.966;73.390;2024-02-21T03:55:12;9.85;;;3.58;;
63664;SDS011;49820;33.966;73.390;2024-02-21T03:57:42;7.97;;;3.80;;
63664;SDS011;49820;33.966;73.390;2024-02-21T04:00:12;5.75;;;3.75;;
63664;SDS011;49820;33.966;73.390;2024-02-21T04:02:42;6.32;;;3.55;;
63664;SDS011;49820;33.966;73.390;2024-02-21T04:05:11;5.72;;;3.20;;
63664;SDS011;49820;33.966;73.390;2024-02-21T04:07:44;7.47;;;3.53;;
63664;SDS011;49820;33.966;73.390;2024-02-21T04:10:14;5.72;;;3.60;;
63664;SDS011;49820;33.966;73.390;2024-02-21T04:12:44;7.03;;;3.95;;
63664;SDS011;49820;33.966;73.390;2024-02-21T04:15:13;6.97;;;4.18;;
63664;SDS011;49820;33.966;73.390;2024-02-21T04:17:44;7.57;;;3.88;;
63664;SDS011;49820;33.966;73.390;2024-02-21T04:20:14;7.28;;;3.63;;
63664;SDS011;49820;33.966;73.390;2024-02-21T04:22:45;5.93;;;3.95;;
63664;SDS011;49820;33.966;73.390;2024-02-21T04:25:15;7.70;;;3.90;;
63664;SDS011;49820;33.966;73.390;2024-02-21T04:27:45;9.05;;;4.07;;
63664;SDS011;49820;33.966;73.390;2024-02-21T04:30:15;7.25;;;3.78;;
63664;SDS011;49820;33.966;73.390;2024-02-21T04:32:45;5.13;;;3.50;;
63664;SDS011;49820;33.966;73.390;2024-02-21T04:35:14;6.87;;;4.03;;
63664;SDS011;49820;33.966;73.390;2024-02-21T04:37:45;5.83;;;3.50;;
63664;SDS011;49820;33.966;73.390;2024-02-21T04:40:15;7.68;;;3.88;;
63664;SDS011;49820;33.966;73.390;2024-02-21T04:56:55;8.93;;;4.18;;
63664;SDS011;49820;33.966;73.390;2024-02-21T05:01:25;7.15;;;4.07;;
63664;SDS011;49820;33.966;73.390;2024-02-21T05:03:55;6.43;;;4.07;;
63664;SDS011;49820;33.966;73.390;2024-02-21T05:06:25;6.35;;;3.75;;
63664;SDS011;49820;33.966;73.390;2024-02-21T05:08:55;9.60;;;4.47;;
63664;SDS011;49820;33.966;73.390;2024-02-21T05:11:26;8.20;;;4.55;;
63664;SDS011;49820;33.966;73.390;2024-02-21T05:18:16;8.75;;;3.90;;
63664;SDS011;49820;33.966;73.390;2024-02-21T05:20:46;9.80;;;5.07;;
63664;SDS011;49820;33.966;73.390;2024-02-21T05:26:24;8.48;;;4.40;;
63664;SDS011;49820;33.966;73.390;2024-02-21T05:32:03;7.40;;;4.07;;
63664;SDS011;49820;33.966;73.390;2024-02-21T05:34:33;7.85;;;4.15;;
63664;SDS011;49820;33.966;73.390;2024-02-21T05:37:04;7.82;;;4.20;;
63664;SDS011;49820;33.966;73.390;2024-02-21T05:39:33;6.25;;;3.80;;
63664;SDS011;49820;33.966;73.390;2024-02-21T05:42:03;8.00;;;4.10;;
63664;SDS011;49820;33.966;73.390;2024-02-21T05:44:33;5.88;;;3.97;;
63664;SDS011;49820;33.966;73.390;2024-02-21T05:47:03;6.50;;;4.05;;
63664;SDS011;49820;33.966;73.390;2024-02-21T05:49:33;7.93;;;3.97;;
63664;SDS011;49820;33.966;73.390;2024-02-21T05:52:03;6.30;;;4.10;;
63664;SDS011;49820;33.966;73.390;2024-02-21T05:54:37;6.55;;;3.95;;
63664;SDS011;49820;33.966;73.390;2024-02-21T05:57:08;5.45;;;3.72;;
63664;SDS011;49820;33.966;73.390;2024-02-21T05:59:38;5.97;;;4.17;;
63664;SDS011;49820;33.966;73.390;2024-02-21T06:02:10;5.07;;;4.05;;
63664;SDS011;49820;33.966;73.390;2024-02-21T06:04:41;6.90;;;4.13;;
63664;SDS011;49820;33.966;73.390;2024-02-21T06:07:11;7.35;;;4.07;;
63664;SDS011;49820;33.966;73.390;2024-02-21T06:09:42;7.22;;;4.18;;
63664;SDS011;49820;33.966;73.390;2024-02-21T06:12:13;5.47;;;3.88;;
63664;SDS011;49820;33.966;73.390;2024-02-21T06:14:42;7.22;;;4.22;;
63664;SDS011;49820;33.966;73.390;2024-02-21T06:17:12;10.38;;;4.75;;
63664;SDS011;49820;33.966;73.390;2024-02-21T06:19:42;6.82;;;4.40;;
63664;SDS011;49820;33.966;73.390;2024-02-21T06:22:13;6.00;;;4.00;;
63664;SDS011;49820;33.966;73.390;2024-02-21T06:24:44;6.47;;;3.93;;
63664;SDS011;49820;33.966;73.390;2024-02-21T06:27:14;5.38;;;3.97;;
63664;SDS011;49820;33.966;73.390;2024-02-21T06:29:45;6.63;;;4.00;;
63664;SDS011;49820;33.966;73.390;2024-02-21T06:32:15;7.40;;;3.85;;
63664;SDS011;49820;33.966;73.390;2024-02-21T06:34:45;8.30;;;4.10;;
63664;SDS011;49820;33.966;73.390;2024-02-21T06:37:15;6.43;;;4.20;;
63664;SDS011;49820;33.966;73.390;2024-02-21T06:39:44;6.45;;;3.70;;
63664;SDS011;49820;33.966;73.390;2024-02-21T06:42:15;6.47;;;4.10;;
63664;SDS011;49820;33.966;73.390;2024-02-21T06:44:44;6.72;;;4.00;;
63664;SDS011;49820;33.966;73.390;2024-02-21T06:47:14;7.95;;;4.18;;
63664;SDS011;49820;33.966;73.390;2024-02-21T06:49:48;6.47;;;3.92;;
63664;SDS011;49820;33.966;73.390;2024-02-21T06:52:19;6.57;;;3.80;;
63664;SDS011;49820;33.966;73.390;2024-02-21T06:54:49;5.90;;;3.53;;
63664;SDS011;49820;33.966;73.390;2024-02-21T06:57:20;6.95;;;3.85;;
63664;SDS011;49820;33.966;73.390;2024-02-21T06:59:50;6.77;;;3.53;;
63664;SDS011;49820;33.966;73.390;2024-02-21T07:02:19;5.65;;;3.80;;
63664;SDS011;49820;33.966;73.390;2024-02-21T07:04:49;4.63;;;3.53;;
63664;SDS011;49820;33.966;73.390;2024-02-21T07:07:20;4.63;;;3.10;;
63664;SDS011;49820;33.966;73.390;2024-02-21T07:09:50;6.50;;;4.00;;
63664;SDS011;49820;33.966;73.390;2024-02-21T07:12:21;5.93;;;3.50;;
63664;SDS011;49820;33.966;73.390;2024-02-21T07:14:51;5.28;;;3.42;;
63664;SDS011;49820;33.966;73.390;2024-02-21T07:17:21;5.85;;;3.60;;
63664;SDS011;49820;33.966;73.390;2024-02-21T07:19:51;5.55;;;3.35;;
63664;SDS011;49820;33.966;73.390;2024-02-21T07:22:21;5.90;;;3.42;;
63664;SDS011;49820;33.966;73.390;2024-02-21T07:24:51;4.63;;;3.30;;
63664;SDS011;49820;33.966;73.390;2024-02-21T07:27:21;5.15;;;3.50;;
63664;SDS011;49820;33.966;73.390;2024-02-21T07:29:50;5.78;;;3.45;;
63664;SDS011;49820;33.966;73.390;2024-02-21T07:32:20;6.13;;;3.40;;
63664;SDS011;49820;33.966;73.390;2024-02-21T07:34:50;6.07;;;3.28;;
63664;SDS011;49820;33.966;73.390;2024-02-21T07:37:20;5.57;;;3.80;;
63664;SDS011;49820;33.966;73.390;2024-02-21T07:39:50;5.78;;;3.65;;
63664;SDS011;49820;33.966;73.390;2024-02-21T07:42:20;6.07;;;3.50;;
63664;SDS011;49820;33.966;73.390;2024-02-21T07:44:49;5.97;;;4.10;;
63664;SDS011;49820;33.966;73.390;2024-02-21T07:47:19;5.13;;;3.80;;
63664;SDS011;49820;33.966;73.390;2024-02-21T07:49:49;7.88;;;4.10;;
63664;SDS011;49820;33.966;73.390;2024-02-21T07:52:19;6.68;;;3.70;;
63664;SDS011;49820;33.966;73.390;2024-02-21T07:54:49;8.05;;;3.92;;
63664;SDS011;49820;33.966;73.390;2024-02-21T07:57:19;6.60;;;3.90;;
63664;SDS011;49820;33.966;73.390;2024-02-21T07:59:49;5.65;;;3.85;;
63664;SDS011;49820;33.966;73.390;2024-02-21T08:02:19;6.82;;;3.72;;
63664;SDS011;49820;33.966;73.390;2024-02-21T08:04:48;6.65;;;4.07;;
63664;SDS011;49820;33.966;73.390;2024-02-21T08:07:18;6.25;;;3.75;;
63664;SDS011;49820;33.966;73.390;2024-02-21T08:09:49;6.47;;;4.18;;
63664;SDS011;49820;33.966;73.390;2024-02-21T08:12:21;6.53;;;3.88;;
63664;SDS011;49820;33.966;73.390;2024-02-21T08:14:53;8.15;;;3.90;;
63664;SDS011;49820;33.966;73.390;2024-02-21T08:17:24;6.57;;;3.67;;
63664;SDS011;49820;33.966;73.390;2024-02-21T08:19:54;5.32;;;3.55;;
63664;SDS011;49820;33.966;73.390;2024-02-21T08:22:24;5.55;;;3.55;;
63664;SDS011;49820;33.966;73.390;2024-02-21T08:24:54;6.18;;;3.55;;
63664;SDS011;49820;33.966;73.390;2024-02-21T08:27:24;5.18;;;3.60;;
63664;SDS011;49820;33.966;73.390;2024-02-21T08:29:54;6.28;;;4.00;;
63664;SDS011;49820;33.966;73.390;2024-02-21T08:32:24;6.13;;;3.80;;
63664;SDS011;49820;33.966;73.390;2024-02-21T08:34:54;5.43;;;3.63;;
63664;SDS011;49820;33.966;73.390;2024-02-21T08:37:24;5.93;;;3.78;;
63664;SDS011;49820;33.966;73.390;2024-02-21T08:39:56;6.57;;;3.92;;
63664;SDS011;49820;33.966;73.390;2024-02-21T08:42:25;7.93;;;3.90;;
63664;SDS011;49820;33.966;73.390;2024-02-21T08:44:57;7.82;;;3.72;;
63664;SDS011;49820;33.966;73.390;2024-02-21T08:47:27;6.00;;;3.80;;
63664;SDS011;49820;33.966;73.390;2024-02-21T08:49:57;6.82;;;3.95;;
63664;SDS011;49820;33.966;73.390;2024-02-21T08:52:37;5.97;;;4.20;;
63664;SDS011;49820;33.966;73.390;2024-02-21T08:55:08;7.38;;;4.35;;
63664;SDS011;49820;33.966;73.390;2024-02-21T08:57:37;6.25;;;3.70;;
63664;SDS011;49820;33.966;73.390;2024-02-21T09:00:07;5.53;;;3.45;;
63664;SDS011;49820;33.966;73.390;2024-02-21T09:02:41;5.30;;;3.47;;
63664;SDS011;49820;33.966;73.390;2024-02-21T09:05:12;5.13;;;3.50;;
63664;SDS011;49820;33.966;73.390;2024-02-21T09:07:42;6.00;;;3.60;;
63664;SDS011;49820;33.966;73.390;2024-02-21T09:10:12;6.20;;;3.63;;
63664;SDS011;49820;33.966;73.390;2024-02-21T09:12:42;5.63;;;3.55;;
63664;SDS011;49820;33.966;73.390;2024-02-21T09:15:12;6.23;;;3.97;;
63664;SDS011;49820;33.966;73.390;2024-02-21T09:17:43;3.75;;;1.98;;
63664;SDS011;49820;33.966;73.390;2024-02-21T09:20:12;5.95;;;3.00;;
63664;SDS011;49820;33.966;73.390;2024-02-21T09:22:45;4.15;;;2.75;;
63664;SDS011;49820;33.966;73.390;2024-02-21T09:25:14;3.78;;;2.33;;
63664;SDS011;49820;33.966;73.390;2024-02-21T09:27:45;4.80;;;2.30;;
63664;SDS011;49820;33.966;73.390;2024-02-21T09:30:15;4.05;;;2.30;;
63664;SDS011;49820;33.966;73.390;2024-02-21T09:32:45;3.22;;;1.80;;
63664;SDS011;49820;33.966;73.390;2024-02-21T09:35:15;3.13;;;1.70;;
63664;SDS011;49820;33.966;73.390;2024-02-21T09:37:45;2.70;;;1.45;;
63664;SDS011;49820;33.966;73.390;2024-02-21T09:40:15;2.22;;;1.40;;
63664;SDS011;49820;33.966;73.390;2024-02-21T09:42:46;1.88;;;1.33;;
63664;SDS011;49820;33.966;73.390;2024-02-21T09:48:06;2.70;;;1.58;;
63664;SDS011;49820;33.966;73.390;2024-02-21T09:50:38;3.47;;;2.23;;
63664;SDS011;49820;33.966;73.390;2024-02-21T09:53:11;2.55;;;1.70;;
63664;SDS011;49820;33.966;73.390;2024-02-21T09:55:43;2.33;;;1.33;;
63664;SDS011;49820;33.966;73.390;2024-02-21T09:58:13;2.53;;;1.42;;
63664;SDS011;49820;33.966;73.390;2024-02-21T10:00:44;2.90;;;1.50;;
63664;SDS011;49820;33.966;73.390;2024-02-21T10:03:14;3.17;;;1.50;;
63664;SDS011;49820;33.966;73.390;2024-02-21T10:05:47;1.73;;;1.17;;
63664;SDS011;49820;33.966;73.390;2024-02-21T10:08:21;2.60;;;1.70;;
63664;SDS011;49820;33.966;73.390;2024-02-21T10:10:51;2.47;;;1.50;;
63664;SDS011;49820;33.966;73.390;2024-02-21T10:13:25;2.28;;;1.52;;
63664;SDS011;49820;33.966;73.390;2024-02-21T10:16:06;2.90;;;1.80;;
63664;SDS011;49820;33.966;73.390;2024-02-21T10:18:37;3.03;;;1.75;;
63664;SDS011;49820;33.966;73.390;2024-02-21T10:21:07;3.17;;;1.88;;
63664;SDS011;49820;33.966;73.390;2024-02-21T10:26:17;2.88;;;1.70;;
63664;SDS011;49820;33.966;73.390;2024-02-21T10:28:48;3.60;;;1.77;;
63664;SDS011;49820;33.966;73.390;2024-02-21T10:31:27;3.67;;;2.35;;
63664;SDS011;49820;33.966;73.390;2024-02-21T10:33:57;3.30;;;2.22;;
63664;SDS011;49820;33.966;73.390;2024-02-21T10:36:31;4.63;;;2.70;;
63664;SDS011;49820;33.966;73.390;2024-02-21T10:39:01;4.65;;;2.60;;
63664;SDS011;49820;33.966;73.390;2024-02-21T10:41:31;4.32;;;2.63;;
63664;SDS011;49820;33.966;73.390;2024-02-21T10:44:01;10.40;;;2.47;;
63664;SDS011;49820;33.966;73.390;2024-02-21T10:46:36;5.03;;;2.65;;
63664;SDS011;49820;33.966;73.390;2024-02-21T10:49:10;3.92;;;2.42;;
63664;SDS011;49820;33.966;73.390;2024-02-21T10:51:46;4.30;;;2.80;;
63664;SDS011;49820;33.966;73.390;2024-02-21T10:54:30;7.72;;;3.20;;
63664;SDS011;49820;33.966;73.390;2024-02-21T10:57:09;2.53;;;1.77;;
63664;SDS011;49820;33.966;73.390;2024-02-21T10:59:41;1.90;;;1.40;;
63664;SDS011;49820;33.966;73.390;2024-02-21T11:02:14;3.45;;;1.92;;
63664;SDS011;49820;33.966;73.390;2024-02-21T11:04:45;2.45;;;1.58;;
63664;SDS011;49820;33.966;73.390;2024-02-21T11:07:16;3.05;;;1.75;;
63664;SDS011;49820;33.966;73.390;2024-02-21T11:09:53;1.80;;;1.30;;
63664;SDS011;49820;33.966;73.390;2024-02-21T11:12:23;2.22;;;1.67;;
63664;SDS011;49820;33.966;73.390;2024-02-21T11:15:05;3.00;;;1.75;;
63664;SDS011;49820;33.966;73.390;2024-02-21T11:17:35;3.65;;;1.77;;
63664;SDS011;49820;33.966;73.390;2024-02-21T11:20:16;2.22;;;1.75;;
63664;SDS011;49820;33.966;73.390;2024-02-21T11:22:46;4.05;;;1.60;;
63664;SDS011;49820;33.966;73.390;2024-02-21T11:25:21;3.50;;;1.90;;
63664;SDS011;49820;33.966;73.390;2024-02-21T11:27:58;4.70;;;2.40;;
63664;SDS011;49820;33.966;73.390;2024-02-21T11:30:35;5.32;;;2.78;;
63664;SDS011;49820;33.966;73.390;2024-02-21T11:33:06;4.00;;;2.20;;
63664;SDS011;49820;33.966;73.390;2024-02-21T11:35:36;4.38;;;2.35;;
63664;SDS011;49820;33.966;73.390;2024-02-21T11:38:12;4.32;;;2.33;;
63664;SDS011;49820;33.966;73.390;2024-02-21T11:40:46;4.27;;;2.60;;
63664;SDS011;49820;33.966;73.390;2024-02-21T11:43:16;6.18;;;2.63;;
63664;SDS011;49820;33.966;73.390;2024-02-21T11:45:46;4.27;;;2.63;;
63664;SDS011;49820;33.966;73.390;2024-02-21T11:48:16;6.55;;;2.47;;
63664;SDS011;49820;33.966;73.390;2024-02-21T11:50:55;5.07;;;2.42;;
63664;SDS011;49820;33.966;73.390;2024-02-21T11:53:25;4.33;;;2.43;;
63664;SDS011;49820;33.966;73.390;2024-02-21T11:56:04;5.28;;;2.60;;
63664;SDS011;49820;33.966;73.390;2024-02-21T11:58:34;3.90;;;2.40;;
63664;SDS011;49820;33.966;73.390;2024-02-21T12:01:04;4.50;;;2.20;;
63664;SDS011;49820;33.966;73.390;2024-02-21T12:03:35;5.07;;;3.00;;
63664;SDS011;49820;33.966;73.390;2024-02-21T12:06:05;4.95;;;2.17;;
63664;SDS011;49820;33.966;73.390;2024-02-21T12:08:43;4.23;;;2.73;;
63664;SDS011;49820;33.966;73.390;2024-02-21T12:11:17;4.72;;;2.30;;
63664;SDS011;49820;33.966;73.390;2024-02-21T12:13:58;4.43;;;2.40;;
63664;SDS011;49820;33.966;73.390;2024-02-21T12:16:29;3.92;;;2.10;;
63664;SDS011;49820;33.966;73.390;2024-02-21T12:19:00;5.50;;;2.60;;
63664;SDS011;49820;33.966;73.390;2024-02-21T12:21:31;4.50;;;2.50;;
63664;SDS011;49820;33.966;73.390;2024-02-21T12:24:12;4.03;;;2.88;;
63664;SDS011;49820;33.966;73.390;2024-02-21T12:26:43;5.97;;;3.00;;
63664;SDS011;49820;33.966;73.390;2024-02-21T12:29:13;7.30;;;3.30;;
63664;SDS011;49820;33.966;73.390;2024-02-21T12:31:43;5.15;;;3.08;;
63664;SDS011;49820;33.966;73.390;2024-02-21T12:34:15;5.57;;;3.20;;
63664;SDS011;49820;33.966;73.390;2024-02-21T12:36:58;5.60;;;3.33;;
63664;SDS011;49820;33.966;73.390;2024-02-21T12:39:28;5.07;;;3.03;;
63664;SDS011;49820;33.966;73.390;2024-02-21T12:41:58;5.60;;;3.08;;
63664;SDS011;49820;33.966;73.390;2024-02-21T12:44:28;3.35;;;2.15;;
63664;SDS011;49820;33.966;73.390;2024-02-21T12:46:58;7.45;;;2.33;;
63664;SDS011;49820;33.966;73.390;2024-02-21T12:49:29;3.33;;;2.00;;
63664;SDS011;49820;33.966;73.390;2024-02-21T12:52:01;3.15;;;2.00;;
63664;SDS011;49820;33.966;73.390;2024-02-21T12:54:33;4.53;;;2.30;;
63664;SDS011;49820;33.966;73.390;2024-02-21T12:57:03;4.18;;;1.90;;
63664;SDS011;49820;33.966;73.390;2024-02-21T12:59:32;4.70;;;2.00;;
63664;SDS011;49820;33.966;73.390;2024-02-21T13:02:02;4.40;;;2.00;;
63664;SDS011;49820;33.966;73.390;2024-02-21T13:04:33;3.22;;;1.85;;
63664;SDS011;49820;33.966;73.390;2024-02-21T13:07:02;3.15;;;2.20;;
63664;SDS011;49820;33.966;73.390;2024-02-21T13:09:32;2.97;;;1.90;;
63664;SDS011;49820;33.966;73.390;2024-02-21T13:12:03;4.25;;;2.10;;
63664;SDS011;49820;33.966;73.390;2024-02-21T13:14:34;4.72;;;2.40;;
63664;SDS011;49820;33.966;73.390;2024-02-21T13:17:05;4.20;;;2.00;;
63664;SDS011;49820;33.966;73.390;2024-02-21T13:19:35;3.17;;;2.00;;
63664;SDS011;49820;33.966;73.390;2024-02-21T13:22:06;5.43;;;2.53;;
63664;SDS011;49820;33.966;73.390;2024-02-21T13:24:35;5.32;;;2.65;;
63664;SDS011;49820;33.966;73.390;2024-02-21T13:27:05;4.60;;;2.40;;
63664;SDS011;49820;33.966;73.390;2024-02-21T13:29:35;5.38;;;2.55;;
63664;SDS011;49820;33.966;73.390;2024-02-21T13:32:05;4.60;;;2.60;;
63664;SDS011;49820;33.966;73.390;2024-02-21T13:34:35;5.18;;;2.90;;
63664;SDS011;49820;33.966;73.390;2024-02-21T13:37:06;3.47;;;2.20;;
63664;SDS011;49820;33.966;73.390;2024-02-21T13:39:38;4.70;;;2.33;;
63664;SDS011;49820;33.966;73.390;2024-02-21T13:42:08;5.00;;;2.53;;
63664;SDS011;49820;33.966;73.390;2024-02-21T13:44:38;4.45;;;2.53;;
63664;SDS011;49820;33.966;73.390;2024-02-21T13:47:08;4.03;;;2.65;;
63664;SDS011;49820;33.966;73.390;2024-02-21T13:49:40;4.68;;;2.72;;
